Tulsa, OK (74135)

12:34 PM CDT on April 23, 2017 (GMT -0500)
36th & Harvard Ave | | Change Station
Active Advisory: Flood Warning

Elev 748 ft 36.11 °N, 95.94 °W | Updated 4 minutes ago

Clear
Clear
65.8 °F
Feels Like 65.8 °F
N
5.4
Wind Variable Wind from East
Gusts 6.9 mph

Today
High -- | Low -- °F
--% Chance of Precip.
Yesterday
High -- | Low -- °F
Precip. -- in
Pressure 30.19 in
Visibility 10.0 miles
Clouds Clear
Dew Point 42 °F
Humidity 41%
Rainfall 0.00 in
Snow Depth Not available.
6:39 AM 8:04 PM
Waning Crescent, 11% visible
METAR KRVS 231653Z 01008KT 10SM CLR 18/04 A3016 RMK AO2 SLP222 T01780039
Pressure 30.19 in
Visibility 10.0 miles
Clouds Clear
Dew Point 42 °F
Humidity 41%
Rainfall 0.00 in
Snow Depth Not available.
6:39 AM 8:04 PM
Waning Crescent, 11% visible
METAR KRVS 231653Z 01008KT 10SM CLR 18/04 A3016 RMK AO2 SLP222 T01780039

Get Your Daily Forecast Email!

Thanks for signing up!

Be on the lookout for a verification email in your inbox.

You'll start receiving severe weather alerts in your inbox..

×

10-Day Weather Forecast

Almanac

Astronomy

Apr. 23, 2017 Rise Set
Actual Time
Civil Twilight
Nautical Twilight
Astronomical Twilight
Moon
Length of Visible Light
Length of Day
Tomorrow will be .
, % of the Moon is Illuminated

Today's Extremes

State Highs State Lows

Community

WunderPhotos

WunderBlog® & News

Nearby

Air Quality

  Air Quality AQ Index Pollutant
Not available.

Snow Depth

Station Depth Elevation

Earthquake Activity

City Distance Mag. Time & Date
Minimum magnitude displayed is 2.5.

Coastal Water Temperatures

Place Temperature

Stations

Nearby Weather Stations

Station Location Temp. Windchill Dew Point Humidity Wind Precip. Elev Updated Type
                   

Watches & Warnings

Flood Warning
Issued: 8:48 AM CDT Apr. 23, 2017 – National Weather Service

... Flood Warning extended until this evening...
the Flood Warning continues for
the Caney river near Collinsville.
* Until this evening, or until the warning is cancelled.
* At 8:30 am Sunday, the stage was 27.01 feet.
* Flood stage is 26.0 feet.
* Minor flooding is occurring but the river is falling.
* Forecast... the Caney river near Collinsville will continue falling
to below flood stage by late this afternoon.
* Impact... at 27.0 feet, minor agricultural flooding occurs. County
roads north of Collinsville may be covered with water.


Lat... Lon 3643 9580 3636 9564 3630 9570 3635 9588